Time;durP1;ratioP1;P1;durP2;ratioP2;P2;SDS_P1;SDS_P2;PMS_P1;PMS_P2;Temp;Humidity;BMP_temperature;BMP_pressure;BME280_temperature;BME280_humidity;BME280_pressure;Samples;Min_cycle;Max_cycle;Signal;HPM_P1;HPM_P2
2022/10/28 00:02:20;;;;;;;182.60;100.63;;;;;;;22.04;74.42;98809.97;4945111;28;20097;-67
2022/10/28 00:05:09;;;;;;;171.68;100.32;;;;;;;22.04;73.94;98804.50;4966816;28;20039;-68
2022/10/28 00:07:51;;;;;;;178.43;99.00;;;;;;;22.10;74.00;98814.28;4965684;28;20070;-66
2022/10/28 00:10:40;;;;;;;175.13;99.65;;;;;;;22.04;73.84;98820.09;4969053;28;20061;-67
2022/10/28 00:13:23;;;;;;;162.30;100.63;;;;;;;21.99;74.17;98817.41;4968644;28;20039;-67
2022/10/28 00:16:22;;;;;;;173.13;102.80;;;;;;;21.98;74.63;98816.59;4964227;28;20564;-67
2022/10/28 00:19:00;;;;;;;170.02;102.05;;;;;;;21.90;74.66;98817.22;4969326;28;20046;-67
2022/10/28 00:21:49;;;;;;;166.07;101.03;;;;;;;21.88;75.13;98817.50;4968066;28;20031;-66
2022/10/28 00:24:38;;;;;;;174.05;100.25;;;;;;;21.90;74.95;98822.69;4982950;28;20062;-67
2022/10/28 00:27:33;;;;;;;159.85;98.30;;;;;;;21.88;74.96;98822.16;4965846;28;21408;-67
2022/10/28 00:30:09;;;;;;;164.18;99.55;;;;;;;21.86;75.24;98829.84;4966714;28;20039;-67
2022/10/28 00:33:04;;;;;;;170.02;99.82;;;;;;;21.91;75.23;98821.56;4967710;28;20130;-67
2022/10/28 00:35:40;;;;;;;179.38;101.90;;;;;;;21.94;75.30;98828.41;4961301;28;20051;-66
2022/10/28 00:38:37;;;;;;;172.98;101.15;;;;;;;21.93;75.26;98824.84;4964768;28;20058;-67
2022/10/28 00:41:19;;;;;;;186.68;104.70;;;;;;;21.97;75.03;98825.06;4965753;28;20046;-66
2022/10/28 00:44:46;;;;;;;178.20;101.03;;;;;;;22.02;74.96;98827.78;4941163;28;20526;-67
2022/10/28 00:47:41;;;;;;;165.52;100.25;;;;;;;21.92;75.36;98817.75;4948393;28;20053;-69
2022/10/28 00:50:39;;;;;;;163.73;101.30;;;;;;;21.90;75.54;98819.97;4962913;28;20050;-68
2022/10/28 00:53:34;;;;;;;173.25;103.00;;;;;;;21.78;75.39;98835.88;4960339;28;20061;-70
2022/10/28 00:56:26;;;;;;;170.27;101.07;;;;;;;21.72;75.72;98823.38;4966756;28;20047;-68
2022/10/28 00:59:40;;;;;;;164.80;103.32;;;;;;;21.69;75.74;98831.03;4965314;28;20117;-68
2022/10/28 01:02:22;;;;;;;180.13;105.05;;;;;;;21.69;75.81;98831.03;4966740;28;20843;-67
2022/10/28 01:05:11;;;;;;;172.07;102.72;;;;;;;21.80;75.49;98837.25;4961668;28;20051;-69
2022/10/28 01:07:58;;;;;;;167.40;102.00;;;;;;;21.87;75.22;98839.66;4967356;28;20043;-67
2022/10/28 01:11:10;;;;;;;179.13;104.97;;;;;;;21.75;75.39;98839.19;4968124;28;20565;-68
2022/10/28 01:14:24;;;;;;;178.85;103.13;;;;;;;21.78;75.45;98838.63;4966791;28;20421;-71
2022/10/28 01:17:43;;;;;;;176.15;102.80;;;;;;;21.76;75.35;98846.28;4945520;28;20118;-69
2022/10/28 01:21:19;;;;;;;196.27;105.20;;;;;;;21.65;75.72;98854.56;4959343;28;20443;-67
2022/10/28 01:24:11;;;;;;;161.85;95.03;;;;;;;21.91;74.66;98862.56;4947553;28;20047;-68
2022/10/28 01:27:13;;;;;;;175.73;99.95;;;;;;;22.04;74.07;98864.63;4940990;28;20750;-68
2022/10/28 01:30:25;;;;;;;173.95;99.75;;;;;;;22.01;74.23;98869.84;4947137;28;20066;-69
2022/10/28 01:33:15;;;;;;;181.50;101.68;;;;;;;22.04;73.86;98867.38;4942803;28;20150;-68
2022/10/28 01:36:17;;;;;;;173.18;97.88;;;;;;;22.14;73.42;98868.41;4939834;28;20054;-68
2022/10/28 01:38:52;;;;;;;183.73;102.43;;;;;;;22.07;73.02;98875.00;4946525;28;20042;-68
2022/10/28 01:41:49;;;;;;;161.32;97.25;;;;;;;22.28;72.67;98880.34;4946759;28;20066;-67
2022/10/28 01:45:05;;;;;;;171.38;96.97;;;;;;;22.34;72.49;98879.19;4946096;28;20051;-68
2022/10/28 01:47:50;;;;;;;163.48;98.70;;;;;;;22.34;72.58;98884.66;4938054;28;20047;-68
2022/10/28 01:51:01;;;;;;;170.93;100.57;;;;;;;22.28;73.17;98889.34;4929346;29;20078;-68
2022/10/28 01:53:47;;;;;;;175.20;101.45;;;;;;;22.39;72.87;98886.53;4944083;28;20054;-67
2022/10/28 01:56:44;;;;;;;190.77;107.57;;;;;;;22.45;72.99;98890.81;4945961;28;20047;-69
2022/10/28 01:59:34;;;;;;;177.65;103.53;;;;;;;22.50;73.05;98893.53;4946692;28;20047;-68
2022/10/28 02:02:24;;;;;;;166.48;103.38;;;;;;;22.73;71.90;98886.47;4947984;28;20062;-67
2022/10/28 02:05:44;;;;;;;182.48;103.20;;;;;;;23.02;70.82;98899.28;4946875;28;20086;-67
2022/10/28 02:08:44;;;;;;;176.38;101.60;;;;;;;22.81;72.35;98904.16;4946150;28;20130;-68
2022/10/28 02:11:29;;;;;;;168.50;102.97;;;;;;;23.06;71.54;98911.28;4945615;28;20154;-68
2022/10/28 02:14:37;;;;;;;166.90;101.20;;;;;;;23.11;71.57;98908.50;4948982;28;20079;-68
2022/10/28 02:17:41;;;;;;;169.95;102.82;;;;;;;23.12;71.48;98915.63;4946969;28;20051;-68
2022/10/28 02:20:48;;;;;;;173.98;103.15;;;;;;;23.12;71.93;98920.25;4943776;28;20043;-68
2022/10/28 02:23:37;;;;;;;175.13;102.03;;;;;;;23.26;71.43;98921.19;4946193;28;20066;-68
2022/10/28 02:26:27;;;;;;;172.45;100.43;;;;;;;23.38;71.43;98924.31;4945003;28;20055;-67
2022/10/28 02:29:17;;;;;;;177.20;105.30;;;;;;;23.56;70.90;98928.22;4944941;28;20055;-69
2022/10/28 02:32:13;;;;;;;165.48;98.90;;;;;;;23.60;71.05;98928.44;4944624;28;20487;-68
2022/10/28 02:35:00;;;;;;;174.60;101.60;;;;;;;23.66;70.82;98940.97;4947117;28;20047;-68
2022/10/28 02:37:53;;;;;;;169.45;103.00;;;;;;;23.73;70.95;98929.63;4945201;28;20148;-68
2022/10/28 02:40:38;;;;;;;170.95;103.80;;;;;;;23.89;70.68;98933.00;4943836;28;20062;-68
2022/10/28 02:43:30;;;;;;;168.95;105.05;;;;;;;23.97;70.46;98941.38;4944313;28;21143;-68
2022/10/28 02:46:13;;;;;;;171.90;106.43;;;;;;;23.93;70.88;98942.25;4944734;28;20109;-68
2022/10/28 02:49:09;;;;;;;170.95;106.72;;;;;;;24.29;69.74;98947.22;4946934;28;20054;-68
2022/10/28 02:52:01;;;;;;;183.25;108.22;;;;;;;24.62;68.91;98954.34;4923002;29;20389;-67
2022/10/28 02:55:00;;;;;;;170.85;109.97;;;;;;;24.52;69.70;98953.72;4945102;28;20062;-68
2022/10/28 02:57:50;;;;;;;185.30;115.28;;;;;;;24.53;70.07;98956.13;4944938;28;20044;-68
2022/10/28 03:00:39;;;;;;;183.48;115.38;;;;;;;24.74;69.70;98959.34;4945783;28;20047;-70
2022/10/28 03:03:21;;;;;;;189.70;119.68;;;;;;;24.69;70.43;98967.69;4949287;28;20051;-69
2022/10/28 03:06:10;;;;;;;209.82;123.28;;;;;;;24.88;69.87;98966.78;4942430;28;20059;-68
2022/10/28 03:08:52;;;;;;;213.13;129.20;;;;;;;24.87;70.09;98971.47;4945549;28;20043;-68
2022/10/28 03:11:41;;;;;;;223.23;133.05;;;;;;;25.06;68.59;98976.09;4946643;28;20415;-68
2022/10/28 03:14:17;;;;;;;216.95;128.90;;;;;;;25.23;69.23;98981.00;4948589;28;20059;-68
2022/10/28 03:17:12;;;;;;;223.35;134.65;;;;;;;25.19;69.59;98981.59;4947601;28;20079;-68
2022/10/28 03:19:48;;;;;;;275.48;137.40;;;;;;;25.26;70.04;98985.88;4946976;28;20079;-69
2022/10/28 03:22:37;;;;;;;250.45;139.20;;;;;;;25.56;68.48;98995.44;4947275;28;20051;-68
2022/10/28 03:25:19;;;;;;;224.27;137.85;;;;;;;25.54;68.08;98989.44;4946040;28;20051;-67
2022/10/28 03:28:08;;;;;;;225.55;142.15;;;;;;;25.77;66.50;98999.38;4946613;28;20054;-67
2022/10/28 03:30:50;;;;;;;233.88;144.02;;;;;;;25.74;63.64;98991.78;4947330;28;20059;-67
2022/10/28 03:33:39;;;;;;;231.18;133.77;;;;;;;25.75;61.43;98998.09;4942224;28;20539;-68
2022/10/28 03:36:28;;;;;;;206.20;124.55;;;;;;;26.11;61.35;99000.88;4945745;28;20130;-68
2022/10/28 03:39:10;;;;;;;185.00;118.78;;;;;;;26.26;60.57;98996.97;4946940;28;20142;-69
2022/10/28 03:41:59;;;;;;;193.25;119.07;;;;;;;26.29;60.60;99010.13;4947128;28;20047;-68
2022/10/28 03:44:41;;;;;;;199.52;114.80;;;;;;;26.49;59.59;99011.56;4946492;28;20052;-68
2022/10/28 03:47:30;;;;;;;177.85;113.50;;;;;;;26.51;58.78;99014.81;4946484;28;20141;-69
2022/10/28 03:50:25;;;;;;;191.40;112.47;;;;;;;26.62;56.20;99009.91;4942711;28;20059;-69
2022/10/28 03:53:01;;;;;;;170.30;106.28;;;;;;;26.93;55.92;99020.16;4946550;28;20047;-69
2022/10/28 03:55:54;;;;;;;181.85;108.03;;;;;;;27.16;55.13;99018.16;4932446;29;20102;-70
2022/10/28 03:58:37;;;;;;;181.63;109.43;;;;;;;27.34;55.01;99016.31;4949682;28;20051;-68
2022/10/28 04:01:26;;;;;;;175.48;105.00;;;;;;;27.46;51.78;99019.31;4950771;28;20177;-69
2022/10/28 04:04:08;;;;;;;166.30;103.18;;;;;;;27.92;52.29;99019.94;4950645;28;20168;-70
2022/10/28 04:06:57;;;;;;;168.90;104.18;;;;;;;28.23;51.70;99017.03;4944544;28;20074;-70
2022/10/28 04:09:39;;;;;;;168.10;102.03;;;;;;;28.42;50.31;99010.41;4948913;28;20059;-71
2022/10/28 04:12:34;;;;;;;164.40;98.03;;;;;;;28.81;49.05;99009.38;4948105;28;20069;-70
2022/10/28 04:15:22;;;;;;;159.02;94.32;;;;;;;29.28;47.32;99012.22;4929383;28;20748;-69
2022/10/28 04:18:18;;;;;;;156.10;93.43;;;;;;;29.39;49.36;99012.66;4931960;28;20491;-69
2022/10/28 04:20:54;;;;;;;141.63;84.82;;;;;;;29.64;47.47;99008.16;4933921;28;20455;-69
2022/10/28 04:23:43;;;;;;;149.75;84.07;;;;;;;29.70;47.08;99006.00;4946248;28;20055;-68
2022/10/28 04:26:26;;;;;;;149.10;85.23;;;;;;;29.55;48.12;99012.91;4948175;28;20106;-69
2022/10/28 04:29:21;;;;;;;151.88;82.35;;;;;;;30.08;45.46;99016.22;4951161;28;20305;-69
2022/10/28 04:31:58;;;;;;;143.85;79.47;;;;;;;30.20;45.46;99024.56;4949414;28;20047;-69
2022/10/28 04:34:53;;;;;;;127.47;80.35;;;;;;;29.75;45.84;99010.53;4942264;28;20154;-69
2022/10/28 04:37:29;;;;;;;136.63;78.50;;;;;;;30.03;46.35;99016.41;4949151;28;20545;-69
2022/10/28 04:40:18;;;;;;;147.63;81.53;;;;;;;30.03;48.24;99011.66;4948927;28;20106;-69
2022/10/28 04:43:00;;;;;;;153.27;79.57;;;;;;;29.88;43.81;99011.44;4949144;28;20138;-70
2022/10/28 04:45:50;;;;;;;139.60;77.75;;;;;;;30.62;46.96;99007.16;4946312;28;20387;-70
2022/10/28 04:48:32;;;;;;;140.48;76.60;;;;;;;30.81;44.52;99014.94;4946599;28;20043;-69
2022/10/28 04:51:21;;;;;;;135.15;74.30;;;;;;;30.54;46.59;99017.16;4941479;28;20052;-70
2022/10/28 04:54:10;;;;;;;104.07;56.60;;;;;;;30.45;46.08;99011.69;4946882;28;20154;-69
2022/10/28 04:56:54;;;;;;;97.43;53.22;;;;;;;31.01;43.51;99014.13;4949049;28;20502;-69
2022/10/28 04:59:43;;;;;;;93.07;52.75;;;;;;;30.90;46.11;99018.47;4948703;28;20050;-69
2022/10/28 05:02:32;;;;;;;92.70;51.00;;;;;;;30.90;41.23;99014.88;4928777;29;20724;-72
2022/10/28 05:05:14;;;;;;;104.53;52.95;;;;;;;31.16;43.46;99000.72;4948436;28;20058;-70
2022/10/28 05:08:03;;;;;;;97.85;49.58;;;;;;;31.22;43.42;99002.13;4958664;28;20047;-66
2022/10/28 05:10:52;;;;;;;93.53;49.87;;;;;;;31.25;42.24;99001.44;4612327;28;10000561;-69
2022/10/28 05:13:41;;;;;;;91.32;47.88;;;;;;;31.69;42.05;99004.47;4937463;28;20110;-69
2022/10/28 05:16:23;;;;;;;89.07;43.15;;;;;;;31.05;39.66;99008.69;4945313;28;20065;-68
2022/10/28 05:19:12;;;;;;;64.03;37.22;;;;;;;31.44;41.46;99005.63;4940759;28;20047;-71
2022/10/28 05:22:01;;;;;;;75.05;34.15;;;;;;;30.54;40.09;98995.00;4945750;28;20062;-69
2022/10/28 05:25:05;;;;;;;62.00;33.70;;;;;;;31.19;42.33;99003.63;4946241;28;20039;-71
2022/10/28 05:27:58;;;;;;;67.55;33.13;;;;;;;31.50;41.96;98999.50;4930311;29;20469;-73
2022/10/28 05:30:47;;;;;;;74.15;33.10;;;;;;;31.52;41.26;98988.88;4938668;28;20047;-71
2022/10/28 05:33:36;;;;;;;64.93;32.45;;;;;;;31.80;42.14;98990.94;4962461;28;20051;-69
2022/10/28 05:36:18;;;;;;;67.15;33.40;;;;;;;31.84;39.59;98988.28;4975395;28;20374;-69
2022/10/28 05:39:07;;;;;;;71.28;33.92;;;;;;;31.96;39.54;98986.28;4933102;28;20065;-69
2022/10/28 05:41:56;;;;;;;55.03;31.17;;;;;;;31.93;42.97;98975.88;4964840;28;20062;-71
2022/10/28 05:44:38;;;;;;;65.65;34.40;;;;;;;31.74;38.27;98973.72;4963943;28;20047;-70
2022/10/28 05:47:27;;;;;;;68.78;37.10;;;;;;;31.38;39.15;98972.56;4962998;28;20043;-69
2022/10/28 05:50:27;;;;;;;67.57;35.43;;;;;;;31.92;43.18;98974.25;4964511;28;20055;-70
2022/10/28 05:53:03;;;;;;;72.55;36.22;;;;;;;31.83;39.21;98981.09;4963363;28;20051;-69
2022/10/28 05:55:52;;;;;;;68.47;37.55;;;;;;;31.88;38.79;98970.56;4960126;28;20039;-69
2022/10/28 05:58:34;;;;;;;71.13;33.25;;;;;;;31.86;39.09;98974.88;4958755;28;20051;-69
2022/10/28 06:01:30;;;;;;;64.10;32.63;;;;;;;31.48;38.65;98964.97;4962136;28;20070;-69
2022/10/28 06:04:06;;;;;;;51.20;28.80;;;;;;;31.40;39.86;98958.34;4961132;28;20047;-69
2022/10/28 06:07:01;;;;;;;63.10;29.83;;;;;;;31.31;38.45;98958.44;4963600;28;20050;-70
2022/10/28 06:09:37;;;;;;;65.30;32.00;;;;;;;31.23;40.01;98964.94;4962347;28;20150;-71
2022/10/28 06:12:26;;;;;;;63.90;32.55;;;;;;;31.37;38.64;98948.75;4964020;28;20061;-74
2022/10/28 06:15:09;;;;;;;71.15;32.55;;;;;;;31.63;40.90;98961.47;4965514;28;20149;-69
2022/10/28 06:18:04;;;;;;;81.10;35.53;;;;;;;31.60;39.43;98956.63;4965555;28;20105;-72
2022/10/28 06:20:41;;;;;;;62.80;34.10;;;;;;;31.93;41.75;98952.84;4963431;28;20065;-72
2022/10/28 06:23:30;;;;;;;75.95;35.60;;;;;;;31.79;37.88;98954.03;4965879;28;20537;-69
2022/10/28 06:26:19;;;;;;;71.28;33.65;;;;;;;31.98;40.03;98949.84;4964623;28;20051;-70
2022/10/28 06:29:10;;;;;;;65.68;33.38;;;;;;;32.00;37.71;98942.78;4957843;28;20545;-71
2022/10/28 06:31:59;;;;;;;75.38;34.30;;;;;;;31.97;39.42;98948.25;4964469;28;20047;-73
2022/10/28 06:34:54;;;;;;;68.82;34.90;;;;;;;31.83;37.52;98943.06;4963945;28;20050;-72
2022/10/28 06:37:30;;;;;;;73.03;33.63;;;;;;;32.15;39.18;98938.47;4963683;28;20140;-72
2022/10/28 06:40:19;;;;;;;63.33;31.52;;;;;;;32.11;38.22;98932.00;4964745;28;20530;-73
2022/10/28 06:43:11;;;;;;;66.00;33.20;;;;;;;32.07;37.89;98925.56;4963892;28;20378;-72
2022/10/28 06:45:55;;;;;;;76.85;33.80;;;;;;;32.19;37.62;98917.16;4959634;28;20141;-77
2022/10/28 06:48:44;;;;;;;69.30;34.45;;;;;;;32.11;38.92;98918.13;4963178;28;20426;-74
2022/10/28 06:51:26;;;;;;;78.97;34.70;;;;;;;32.40;39.20;98910.59;4962919;28;20051;-69
2022/10/28 06:54:15;;;;;;;72.05;35.80;;;;;;;32.04;37.34;98901.25;4960898;28;20125;-72
2022/10/28 06:56:57;;;;;;;67.45;33.35;;;;;;;32.45;38.68;98901.22;4946156;28;20047;-71
2022/10/28 06:59:48;;;;;;;62.58;34.08;;;;;;;32.18;37.77;98896.13;4963906;28;20117;-73
2022/10/28 07:02:30;;;;;;;85.32;38.78;;;;;;;32.33;36.51;98888.19;4938847;28;20058;-72
2022/10/28 07:05:26;;;;;;;90.50;36.72;;;;;;;32.30;39.25;98894.47;4949103;28;20069;-72
2022/10/28 07:08:08;;;;;;;78.90;38.97;;;;;;;32.32;36.54;98886.56;4961609;28;20979;-71
2022/10/28 07:11:05;;;;;;;66.05;38.13;;;;;;;32.65;37.98;98877.16;4963896;28;20148;-73
2022/10/28 07:14:01;;;;;;;87.05;41.38;;;;;;;32.27;36.89;98879.28;4949406;28;20047;-72
2022/10/28 07:16:43;;;;;;;99.22;48.05;;;;;;;32.05;37.03;98879.88;4964169;28;20055;-72
2022/10/28 07:19:32;;;;;;;75.75;42.95;;;;;;;31.95;36.50;98867.28;4963301;28;20050;-72
2022/10/28 07:22:21;;;;;;;92.68;45.58;;;;;;;32.28;38.50;98860.69;4942221;28;20054;-72
2022/10/28 07:25:10;;;;;;;85.50;39.72;;;;;;;32.19;36.53;98850.53;4963049;28;20141;-72
2022/10/28 07:27:52;;;;;;;82.93;44.70;;;;;;;31.66;36.29;98851.75;4962900;28;20470;-72
2022/10/28 07:30:41;;;;;;;85.93;43.35;;;;;;;31.94;38.03;98846.22;4963039;28;20109;-72
2022/10/28 07:33:23;;;;;;;91.97;41.80;;;;;;;31.68;36.17;98841.94;4966090;28;20473;-72
2022/10/28 07:36:13;;;;;;;79.35;41.28;;;;;;;31.94;36.10;98846.22;4966421;28;20058;-74
2022/10/28 07:39:02;;;;;;;81.10;37.53;;;;;;;31.85;35.13;98840.03;4947666;28;20097;-72
2022/10/28 07:41:51;;;;;;;70.05;33.83;;;;;;;32.23;35.04;98833.16;4948035;28;20474;-70
2022/10/28 07:44:33;;;;;;;60.45;31.38;;;;;;;32.05;35.27;98827.94;4950385;28;20047;-72
2022/10/28 07:47:22;;;;;;;64.50;28.02;;;;;;;31.98;33.33;98827.69;4938938;28;20543;-71
2022/10/28 07:50:05;;;;;;;51.30;23.95;;;;;;;32.16;33.40;98823.47;4966605;28;20047;-73
2022/10/28 07:52:54;;;;;;;48.00;17.88;;;;;;;32.04;32.98;98817.97;4966782;28;20054;-73
2022/10/28 07:55:43;;;;;;;43.13;18.23;;;;;;;31.90;32.74;98814.78;4964217;28;20074;-75
2022/10/28 07:58:33;;;;;;;41.35;20.05;;;;;;;31.91;32.18;98808.06;4966811;28;20458;-73
2022/10/28 08:01:17;;;;;;;43.13;22.83;;;;;;;32.20;32.48;98795.81;4966033;28;20705;-71
2022/10/28 08:04:06;;;;;;;51.20;21.77;;;;;;;32.09;33.97;98789.97;4971714;28;20050;-73
2022/10/28 08:06:48;;;;;;;43.92;21.60;;;;;;;32.24;34.88;98790.34;4944128;28;20491;-73
2022/10/28 08:09:37;;;;;;;34.30;19.52;;;;;;;32.18;31.70;98782.28;4966586;28;20051;-74
2022/10/28 08:12:27;;;;;;;36.85;18.52;;;;;;;32.57;32.44;98781.69;4965186;28;20471;-71
2022/10/28 08:15:17;;;;;;;47.30;19.90;;;;;;;32.23;33.87;98780.41;4966519;28;20050;-74
2022/10/28 08:17:59;;;;;;;40.70;19.77;;;;;;;32.28;33.90;98769.84;4966724;28;20042;-69
2022/10/28 08:20:48;;;;;;;43.45;20.88;;;;;;;32.46;33.56;98767.50;4964726;28;20038;-72
2022/10/28 08:23:37;;;;;;;38.45;19.15;;;;;;;32.35;32.18;98769.19;4968810;28;20050;-71
2022/10/28 08:26:26;;;;;;;35.20;20.77;;;;;;;32.42;33.53;98763.81;4970082;28;20051;-72
2022/10/28 08:29:22;;;;;;;41.47;21.50;;;;;;;32.41;35.26;98758.63;4974919;28;20052;-73
2022/10/28 08:32:06;;;;;;;40.03;21.00;;;;;;;32.32;33.67;98753.28;4942009;28;20047;-73
2022/10/28 08:34:55;;;;;;;40.35;21.55;;;;;;;32.18;33.80;98751.75;4959530;28;20046;-73
2022/10/28 08:37:44;;;;;;;38.20;18.80;;;;;;;31.96;33.05;98749.53;4957481;28;20055;-75
2022/10/28 08:40:38;;;;;;;40.35;18.90;;;;;;;31.89;33.26;98744.63;4962950;28;20137;-77
2022/10/28 08:43:27;;;;;;;43.90;18.67;;;;;;;31.75;33.50;98747.78;4961817;28;20149;-73
2022/10/28 08:46:50;;;;;;;35.28;18.33;;;;;;;32.02;33.36;98739.81;4944123;28;20051;-74
2022/10/28 08:49:42;;;;;;;47.47;18.52;;;;;;;31.96;33.76;98730.09;4947237;28;20471;-73
2022/10/28 08:52:42;;;;;;;38.20;18.67;;;;;;;31.97;33.98;98724.19;4962606;28;20050;-73
2022/10/28 08:55:46;;;;;;;39.92;17.33;;;;;;;32.15;35.35;98727.44;4960929;28;20055;-72
2022/10/28 08:58:33;;;;;;;39.13;17.08;;;;;;;31.99;34.54;98730.19;4963606;28;20062;-72
2022/10/28 09:01:54;;;;;;;35.38;15.32;;;;;;;32.18;33.22;98718.41;4961523;28;20079;-74
2022/10/28 09:04:45;;;;;;;25.60;15.10;;;;;;;32.09;32.19;98719.75;4950120;28;20093;-71
2022/10/28 09:07:43;;;;;;;28.17;16.55;;;;;;;31.93;31.83;98714.16;4963224;28;20057;-71
2022/10/28 09:10:45;;;;;;;33.13;16.23;;;;;;;32.18;32.12;98712.88;4961872;28;20782;-72
2022/10/28 09:14:01;;;;;;;30.92;16.95;;;;;;;31.80;30.67;98711.47;4889711;29;20138;-71
2022/10/28 09:16:49;;;;;;;31.33;15.75;;;;;;;32.03;32.08;98707.31;4960436;28;20069;-70
2022/10/28 09:19:57;;;;;;;31.90;16.02;;;;;;;32.11;32.04;98704.34;4965492;28;20558;-70
2022/10/28 09:22:39;;;;;;;34.22;16.40;;;;;;;32.13;32.20;98713.13;4965002;28;20065;-70
2022/10/28 09:25:47;;;;;;;39.33;17.00;;;;;;;32.17;32.66;98702.91;4963468;28;20054;-72
2022/10/28 09:28:56;;;;;;;42.80;19.50;;;;;;;32.12;32.71;98708.75;4964185;28;20498;-72
2022/10/28 09:32:06;;;;;;;35.45;17.77;;;;;;;31.98;31.87;98706.38;4962773;28;20042;-75
2022/10/28 09:35:00;;;;;;;24.92;16.73;;;;;;;32.02;33.31;98705.69;4593448;28;9999928;-75
2022/10/28 09:37:56;;;;;;;39.83;16.95;;;;;;;31.63;33.31;98711.78;4946853;28;20054;-76
2022/10/28 09:40:58;;;;;;;34.92;16.75;;;;;;;31.84;32.86;98699.66;4937484;28;20050;-75
2022/10/28 09:43:40;;;;;;;27.05;15.80;;;;;;;31.92;32.41;98698.69;4941029;28;20588;-76
2022/10/28 09:46:37;;;;;;;28.27;17.27;;;;;;;31.94;32.91;98707.44;4959475;28;20061;-68
2022/10/28 09:49:20;;;;;;;31.60;17.15;;;;;;;31.84;34.77;98705.22;4959925;28;20145;-70
2022/10/28 09:52:18;;;;;;;38.67;17.90;;;;;;;31.75;33.33;98708.94;4930591;28;20042;-70
2022/10/28 09:55:04;;;;;;;29.42;16.83;;;;;;;31.49;32.91;98703.91;4963685;28;20050;-70
2022/10/28 09:57:53;;;;;;;34.90;17.55;;;;;;;31.65;32.96;98700.34;4963042;28;20046;-72
2022/10/28 10:00:43;;;;;;;33.45;17.70;;;;;;;31.68;32.50;98700.44;4964090;28;20073;-72
2022/10/28 10:03:25;;;;;;;32.25;17.83;;;;;;;31.67;33.27;98700.78;4963461;28;20053;-74
2022/10/28 10:06:41;;;;;;;32.15;18.15;;;;;;;31.56;36.68;98694.94;4959899;28;20035;-71
2022/10/28 10:09:27;;;;;;;37.60;17.90;;;;;;;31.44;37.78;98692.22;4961947;28;20054;-71
2022/10/28 10:12:18;;;;;;;37.43;18.97;;;;;;;31.34;34.50;98688.78;4964385;28;20074;-72
2022/10/28 10:15:04;;;;;;;44.35;20.27;;;;;;;31.28;33.05;98690.19;4964582;28;20062;-72
2022/10/28 10:17:54;;;;;;;39.28;20.73;;;;;;;31.36;34.69;98686.47;4952028;28;20062;-72
2022/10/28 10:20:50;;;;;;;42.47;22.55;;;;;;;31.19;34.77;98687.56;4965054;28;20112;-71
2022/10/28 10:23:41;;;;;;;39.97;20.33;;;;;;;31.26;34.47;98684.22;4971251;28;20156;-71
2022/10/28 10:26:23;;;;;;;38.78;20.90;;;;;;;31.30;34.37;98687.88;4974618;28;20098;-71
2022/10/28 10:29:18;;;;;;;43.38;21.65;;;;;;;31.21;34.94;98687.22;4965871;28;20062;-69
2022/10/28 10:32:24;;;;;;;32.22;20.90;;;;;;;31.21;35.21;98684.44;4969116;28;20057;-72
2022/10/28 10:35:28;;;;;;;45.13;22.05;;;;;;;31.14;35.66;98684.22;4966780;28;20478;-71
2022/10/28 10:38:15;;;;;;;47.38;21.42;;;;;;;30.94;36.80;98686.84;4952221;28;20051;-70
2022/10/28 10:41:04;;;;;;;50.58;23.27;;;;;;;30.84;38.79;98690.88;4966591;28;20110;-73
2022/10/28 10:43:46;;;;;;;40.42;21.27;;;;;;;30.82;39.67;98687.66;4965833;28;20058;-73
2022/10/28 10:46:35;;;;;;;43.00;22.40;;;;;;;30.61;40.74;98679.50;4964517;28;20150;-71
2022/10/28 10:49:18;;;;;;;44.28;22.33;;;;;;;30.63;39.65;98688.25;4963567;28;20042;-73
2022/10/28 10:52:29;;;;;;;43.03;22.52;;;;;;;30.56;39.29;98688.03;4964034;28;20102;-71
2022/10/28 10:55:46;;;;;;;40.83;21.83;;;;;;;30.47;40.78;98690.13;4965927;28;20066;-70
2022/10/28 10:58:29;;;;;;;42.15;21.02;;;;;;;30.36;40.73;98680.66;4967013;28;20051;-71
2022/10/28 11:01:22;;;;;;;50.35;22.08;;;;;;;30.21;42.65;98682.13;4963744;28;20130;-71
2022/10/28 11:04:21;;;;;;;46.70;22.77;;;;;;;30.08;43.29;98688.78;4965878;28;20075;-72
2022/10/28 11:07:14;;;;;;;46.20;22.25;;;;;;;29.94;45.72;98689.13;4968122;28;20502;-68
2022/10/28 11:10:04;;;;;;;41.40;22.20;;;;;;;29.80;45.03;98690.25;4970017;28;20055;-71
2022/10/28 11:13:03;;;;;;;56.25;23.63;;;;;;;29.64;45.19;98681.78;4970457;28;20062;-72
2022/10/28 11:16:28;;;;;;;62.15;23.80;;;;;;;29.62;45.72;98686.06;4971539;28;20046;-73
2022/10/28 11:19:35;;;;;;;52.97;23.60;;;;;;;29.48;46.65;98694.63;4967722;28;20058;-70
2022/10/28 11:22:30;;;;;;;56.00;22.27;;;;;;;29.36;46.32;98687.09;4968664;28;20165;-72
2022/10/28 11:25:34;;;;;;;46.42;23.52;;;;;;;29.37;48.72;98690.66;4967473;28;20054;-70
2022/10/28 11:28:48;;;;;;;58.25;24.00;;;;;;;29.23;48.32;98693.72;4969686;28;20043;-70
2022/10/28 11:31:59;;;;;;;51.78;23.30;;;;;;;29.12;48.36;98692.50;4968786;28;20054;-71
2022/10/28 11:34:53;;;;;;;41.72;22.15;;;;;;;29.05;49.27;98695.81;4944849;28;20132;-71
2022/10/28 11:38:11;;;;;;;57.78;24.80;;;;;;;28.90;49.00;98688.94;4968129;28;20057;-71
2022/10/28 11:41:20;;;;;;;60.30;24.52;;;;;;;28.83;50.22;98691.41;4950499;28;20057;-69
2022/10/28 11:44:43;;;;;;;60.22;23.70;;;;;;;28.72;50.84;98692.94;4967800;28;20051;-72
2022/10/28 11:47:30;;;;;;;45.70;23.33;;;;;;;28.54;52.61;98690.28;4938061;28;20137;-72
2022/10/28 11:51:00;;;;;;;56.38;25.05;;;;;;;28.42;53.17;98699.28;4968122;28;20050;-71
2022/10/28 11:53:55;;;;;;;46.10;23.80;;;;;;;28.35;52.49;98700.94;4962138;28;20405;-74
2022/10/28 11:57:04;;;;;;;59.95;24.58;;;;;;;28.23;53.51;98705.22;4967413;28;20065;-74
2022/10/28 12:00:30;;;;;;;56.40;25.50;;;;;;;28.19;53.61;98698.75;4251143;28;10000237;-70
2022/10/28 12:03:33;;;;;;;52.28;24.58;;;;;;;28.15;52.46;98710.78;4965339;28;20050;-72
2022/10/28 12:06:29;;;;;;;59.78;26.40;;;;;;;28.08;53.70;98705.75;4941212;29;20043;-72
2022/10/28 12:09:34;;;;;;;57.67;25.45;;;;;;;28.00;53.06;98709.38;4962507;28;20043;-73
2022/10/28 12:12:16;;;;;;;64.65;25.55;;;;;;;27.86;53.85;98710.34;4959150;28;20053;-72
2022/10/28 12:15:38;;;;;;;67.18;26.10;;;;;;;27.74;53.46;98710.19;4959653;28;20058;-72
2022/10/28 12:18:40;;;;;;;60.38;25.90;;;;;;;27.66;54.89;98713.78;4962721;28;20330;-76
2022/10/28 12:21:37;;;;;;;63.55;26.27;;;;;;;27.53;55.20;98716.44;4952891;28;20047;-73
2022/10/28 12:24:22;;;;;;;75.05;26.95;;;;;;;27.52;55.27;98711.22;4962839;28;20087;-77
2022/10/28 12:27:34;;;;;;;63.08;27.42;;;;;;;27.38;56.74;98719.69;4961783;28;20062;-76
2022/10/28 12:30:26;;;;;;;76.28;28.98;;;;;;;27.29;57.07;98718.88;4953128;28;20130;-76
2022/10/28 12:33:28;;;;;;;70.03;26.88;;;;;;;27.21;56.12;98722.38;4966288;28;20162;-73
2022/10/28 12:36:23;;;;;;;79.43;28.45;;;;;;;27.12;56.52;98714.13;4970925;28;20042;-73
2022/10/28 12:39:33;;;;;;;82.18;25.98;;;;;;;27.09;57.14;98721.09;4968505;28;20505;-72
2022/10/28 12:42:27;;;;;;;75.18;26.67;;;;;;;27.07;57.66;98723.34;4949832;28;20042;-72
2022/10/28 12:45:13;;;;;;;69.20;28.70;;;;;;;27.02;57.19;98720.78;4968583;28;20066;-73
2022/10/28 12:49:00;;;;;;;71.32;27.80;;;;;;;26.98;57.65;98725.31;4970464;28;20544;-73
2022/10/28 12:51:39;;;;;;;76.70;30.70;;;;;;;26.83;57.36;98740.34;4860954;29;20054;-73
2022/10/28 12:54:49;;;;;;;91.10;29.05;;;;;;;26.81;57.53;98737.13;4966742;28;20051;-71
2022/10/28 12:57:30;;;;;;;56.05;26.88;;;;;;;26.81;57.83;98741.78;4963147;28;20055;-72
2022/10/28 13:00:48;;;;;;;65.53;28.50;;;;;;;26.70;58.71;98742.09;4965194;28;20089;-73
2022/10/28 13:03:38;;;;;;;67.75;29.75;;;;;;;26.66;59.14;98743.88;4949197;28;20054;-70
2022/10/28 13:06:48;;;;;;;84.30;29.52;;;;;;;26.68;58.38;98749.88;4963947;28;20055;-70
2022/10/28 13:09:36;;;;;;;73.10;30.92;;;;;;;26.60;59.70;98747.91;4966082;28;20039;-71